sensor_id;sensor_type;location;lat;lon;timestamp;temperature;humidity
20463;DHT22;10390;53.566;9.980;2022-09-09T00:00:47;26.40;1.00
20463;DHT22;10390;53.566;9.980;2022-09-09T00:03:24;26.40;1.00
20463;DHT22;10390;53.566;9.980;2022-09-09T00:11:24;26.40;1.00
20463;DHT22;10390;53.566;9.980;2022-09-09T00:13:56;26.40;1.00
20463;DHT22;10390;53.566;9.980;2022-09-09T00:16:25;26.30;1.00
20463;DHT22;10390;53.566;9.980;2022-09-09T00:19:20;26.30;1.00
20463;DHT22;10390;53.566;9.980;2022-09-09T00:22:14;26.40;1.00
20463;DHT22;10390;53.566;9.980;2022-09-09T00:24:53;26.30;1.00
20463;DHT22;10390;53.566;9.980;2022-09-09T00:27:50;26.40;1.00
20463;DHT22;10390;53.566;9.980;2022-09-09T00:30:27;26.30;1.00
20463;DHT22;10390;53.566;9.980;2022-09-09T00:33:03;26.30;1.00
20463;DHT22;10390;53.566;9.980;2022-09-09T00:35:40;26.30;1.00
20463;DHT22;10390;53.566;9.980;2022-09-09T00:38:13;26.30;1.00
20463;DHT22;10390;53.566;9.980;2022-09-09T00:40:49;26.30;1.00
20463;DHT22;10390;53.566;9.980;2022-09-09T00:43:29;26.30;1.00
20463;DHT22;10390;53.566;9.980;2022-09-09T00:55:00;26.30;1.00
20463;DHT22;10390;53.566;9.980;2022-09-09T00:57:34;26.30;1.00
20463;DHT22;10390;53.566;9.980;2022-09-09T01:03:01;26.30;1.00
20463;DHT22;10390;53.566;9.980;2022-09-09T01:08:48;26.30;1.00
20463;DHT22;10390;53.566;9.980;2022-09-09T01:11:27;26.20;1.00
20463;DHT22;10390;53.566;9.980;2022-09-09T01:14:11;26.20;1.00
20463;DHT22;10390;53.566;9.980;2022-09-09T01:16:43;26.20;1.00
20463;DHT22;10390;53.566;9.980;2022-09-09T01:19:16;26.20;1.00
20463;DHT22;10390;53.566;9.980;2022-09-09T01:22:06;26.20;1.00
20463;DHT22;10390;53.566;9.980;2022-09-09T01:27:22;26.20;1.00
20463;DHT22;10390;53.566;9.980;2022-09-09T01:29:48;26.20;1.00
20463;DHT22;10390;53.566;9.980;2022-09-09T01:37:56;26.10;1.00
20463;DHT22;10390;53.566;9.980;2022-09-09T01:40:22;26.10;1.00
20463;DHT22;10390;53.566;9.980;2022-09-09T01:42:48;26.10;1.00
20463;DHT22;10390;53.566;9.980;2022-09-09T01:45:14;26.20;1.00
20463;DHT22;10390;53.566;9.980;2022-09-09T01:47:43;26.10;1.00
20463;DHT22;10390;53.566;9.980;2022-09-09T01:50:15;26.20;1.00
20463;DHT22;10390;53.566;9.980;2022-09-09T01:52:41;26.20;1.00
20463;DHT22;10390;53.566;9.980;2022-09-09T01:55:08;26.10;1.00
20463;DHT22;10390;53.566;9.980;2022-09-09T01:57:50;26.20;1.00
20463;DHT22;10390;53.566;9.980;2022-09-09T02:00:21;26.10;1.00
20463;DHT22;10390;53.566;9.980;2022-09-09T02:05:43;26.20;1.00
20463;DHT22;10390;53.566;9.980;2022-09-09T02:11:14;26.20;1.00
20463;DHT22;10390;53.566;9.980;2022-09-09T02:13:45;26.10;1.00
20463;DHT22;10390;53.566;9.980;2022-09-09T02:16:35;26.10;1.00
20463;DHT22;10390;53.566;9.980;2022-09-09T02:19:16;26.20;1.00
20463;DHT22;10390;53.566;9.980;2022-09-09T02:21:56;26.10;1.00
20463;DHT22;10390;53.566;9.980;2022-09-09T02:24:27;26.10;1.00
20463;DHT22;10390;53.566;9.980;2022-09-09T02:26:56;26.10;1.00
20463;DHT22;10390;53.566;9.980;2022-09-09T02:29:30;26.10;1.00
20463;DHT22;10390;53.566;9.980;2022-09-09T02:32:00;26.10;1.00
20463;DHT22;10390;53.566;9.980;2022-09-09T02:34:28;26.10;1.00
20463;DHT22;10390;53.566;9.980;2022-09-09T02:36:57;26.10;1.00
20463;DHT22;10390;53.566;9.980;2022-09-09T02:39:25;26.10;1.00
20463;DHT22;10390;53.566;9.980;2022-09-09T02:41:51;26.10;1.00
20463;DHT22;10390;53.566;9.980;2022-09-09T02:44:17;26.10;1.00
20463;DHT22;10390;53.566;9.980;2022-09-09T02:49:18;26.10;1.00
20463;DHT22;10390;53.566;9.980;2022-09-09T02:52:01;26.10;1.00
20463;DHT22;10390;53.566;9.980;2022-09-09T02:56:57;26.10;1.00
20463;DHT22;10390;53.566;9.980;2022-09-09T02:59:27;26.10;1.00
20463;DHT22;10390;53.566;9.980;2022-09-09T03:01:52;26.00;1.00
20463;DHT22;10390;53.566;9.980;2022-09-09T03:04:18;26.10;1.00
20463;DHT22;10390;53.566;9.980;2022-09-09T03:06:44;26.10;1.00
20463;DHT22;10390;53.566;9.980;2022-09-09T03:09:10;26.10;1.00
20463;DHT22;10390;53.566;9.980;2022-09-09T03:11:36;26.10;1.00
20463;DHT22;10390;53.566;9.980;2022-09-09T03:14:02;26.10;1.00
20463;DHT22;10390;53.566;9.980;2022-09-09T03:16:27;26.10;1.00
20463;DHT22;10390;53.566;9.980;2022-09-09T03:18:53;26.10;1.00
20463;DHT22;10390;53.566;9.980;2022-09-09T03:21:19;26.10;1.00
20463;DHT22;10390;53.566;9.980;2022-09-09T03:23:44;26.10;1.00
20463;DHT22;10390;53.566;9.980;2022-09-09T03:26:10;26.10;1.00
20463;DHT22;10390;53.566;9.980;2022-09-09T03:28:36;26.10;1.00
20463;DHT22;10390;53.566;9.980;2022-09-09T03:31:05;26.10;1.00
20463;DHT22;10390;53.566;9.980;2022-09-09T03:33:31;26.10;1.00
20463;DHT22;10390;53.566;9.980;2022-09-09T03:35:57;26.10;1.00
20463;DHT22;10390;53.566;9.980;2022-09-09T03:38:24;26.10;1.00
20463;DHT22;10390;53.566;9.980;2022-09-09T03:40:54;26.10;1.00
20463;DHT22;10390;53.566;9.980;2022-09-09T03:43:26;26.10;1.00
20463;DHT22;10390;53.566;9.980;2022-09-09T03:45:52;26.10;1.00
20463;DHT22;10390;53.566;9.980;2022-09-09T03:48:19;26.10;1.00
20463;DHT22;10390;53.566;9.980;2022-09-09T03:50:46;26.10;1.00
20463;DHT22;10390;53.566;9.980;2022-09-09T03:53:12;26.10;1.00
20463;DHT22;10390;53.566;9.980;2022-09-09T03:55:38;26.00;1.00
20463;DHT22;10390;53.566;9.980;2022-09-09T03:58:04;26.10;1.00
20463;DHT22;10390;53.566;9.980;2022-09-09T04:00:29;26.10;1.00
20463;DHT22;10390;53.566;9.980;2022-09-09T04:02:55;26.10;1.00
20463;DHT22;10390;53.566;9.980;2022-09-09T04:05:23;26.00;1.00
20463;DHT22;10390;53.566;9.980;2022-09-09T04:07:48;26.00;1.00
20463;DHT22;10390;53.566;9.980;2022-09-09T04:10:14;26.00;1.00
20463;DHT22;10390;53.566;9.980;2022-09-09T04:12:41;26.00;1.00
20463;DHT22;10390;53.566;9.980;2022-09-09T04:15:08;26.00;1.00
20463;DHT22;10390;53.566;9.980;2022-09-09T04:17:33;26.00;1.00
20463;DHT22;10390;53.566;9.980;2022-09-09T04:19:59;26.00;1.00
20463;DHT22;10390;53.566;9.980;2022-09-09T04:22:25;26.00;1.00
20463;DHT22;10390;53.566;9.980;2022-09-09T04:24:51;26.00;1.00
20463;DHT22;10390;53.566;9.980;2022-09-09T04:27:16;26.00;1.00
20463;DHT22;10390;53.566;9.980;2022-09-09T04:29:42;26.00;1.00
20463;DHT22;10390;53.566;9.980;2022-09-09T04:32:07;26.00;1.00
20463;DHT22;10390;53.566;9.980;2022-09-09T04:34:33;26.00;1.00
20463;DHT22;10390;53.566;9.980;2022-09-09T04:36:58;25.90;1.00
20463;DHT22;10390;53.566;9.980;2022-09-09T04:39:25;26.00;1.00
20463;DHT22;10390;53.566;9.980;2022-09-09T04:41:50;26.00;1.00
20463;DHT22;10390;53.566;9.980;2022-09-09T04:44:16;26.00;1.00
20463;DHT22;10390;53.566;9.980;2022-09-09T04:46:41;25.90;1.00
20463;DHT22;10390;53.566;9.980;2022-09-09T04:49:07;26.00;1.00
20463;DHT22;10390;53.566;9.980;2022-09-09T04:51:33;26.00;1.00
20463;DHT22;10390;53.566;9.980;2022-09-09T04:53:58;25.90;1.00
20463;DHT22;10390;53.566;9.980;2022-09-09T04:56:24;25.90;1.00
20463;DHT22;10390;53.566;9.980;2022-09-09T04:58:52;25.90;1.00
20463;DHT22;10390;53.566;9.980;2022-09-09T05:01:20;25.90;1.00
20463;DHT22;10390;53.566;9.980;2022-09-09T05:03:47;25.90;1.00
20463;DHT22;10390;53.566;9.980;2022-09-09T05:06:18;25.90;1.00
20463;DHT22;10390;53.566;9.980;2022-09-09T05:08:44;25.90;1.00
20463;DHT22;10390;53.566;9.980;2022-09-09T05:11:20;25.90;1.00
20463;DHT22;10390;53.566;9.980;2022-09-09T05:13:48;25.90;1.00
20463;DHT22;10390;53.566;9.980;2022-09-09T05:16:16;25.80;1.00
20463;DHT22;10390;53.566;9.980;2022-09-09T05:18:42;25.90;1.00
20463;DHT22;10390;53.566;9.980;2022-09-09T05:21:09;25.90;1.00
20463;DHT22;10390;53.566;9.980;2022-09-09T05:23:35;25.90;1.00
20463;DHT22;10390;53.566;9.980;2022-09-09T05:26:02;25.80;1.00
20463;DHT22;10390;53.566;9.980;2022-09-09T05:28:28;25.80;1.00
20463;DHT22;10390;53.566;9.980;2022-09-09T05:30:59;25.90;1.00
20463;DHT22;10390;53.566;9.980;2022-09-09T05:33:26;25.90;1.00
20463;DHT22;10390;53.566;9.980;2022-09-09T05:35:59;25.80;1.00
20463;DHT22;10390;53.566;9.980;2022-09-09T05:38:27;25.80;1.00
20463;DHT22;10390;53.566;9.980;2022-09-09T05:40:53;25.90;1.00
20463;DHT22;10390;53.566;9.980;2022-09-09T05:43:19;25.80;1.00
20463;DHT22;10390;53.566;9.980;2022-09-09T05:45:58;25.80;1.00
20463;DHT22;10390;53.566;9.980;2022-09-09T05:48:28;25.80;1.00
20463;DHT22;10390;53.566;9.980;2022-09-09T05:50:54;25.80;1.00
20463;DHT22;10390;53.566;9.980;2022-09-09T05:53:20;25.90;1.00
20463;DHT22;10390;53.566;9.980;2022-09-09T05:55:46;25.80;1.00
20463;DHT22;10390;53.566;9.980;2022-09-09T05:58:13;25.80;1.00
20463;DHT22;10390;53.566;9.980;2022-09-09T06:00:42;25.80;1.00
20463;DHT22;10390;53.566;9.980;2022-09-09T06:03:11;25.80;1.00
20463;DHT22;10390;53.566;9.980;2022-09-09T06:05:37;25.80;1.00
20463;DHT22;10390;53.566;9.980;2022-09-09T06:08:03;25.80;1.00
20463;DHT22;10390;53.566;9.980;2022-09-09T06:10:28;25.80;1.00
20463;DHT22;10390;53.566;9.980;2022-09-09T06:12:54;25.80;1.00
20463;DHT22;10390;53.566;9.980;2022-09-09T06:15:20;25.80;1.00
20463;DHT22;10390;53.566;9.980;2022-09-09T06:17:46;25.80;1.00
20463;DHT22;10390;53.566;9.980;2022-09-09T06:20:12;25.80;1.00
20463;DHT22;10390;53.566;9.980;2022-09-09T06:22:41;25.80;1.00
20463;DHT22;10390;53.566;9.980;2022-09-09T06:25:08;25.80;1.00
20463;DHT22;10390;53.566;9.980;2022-09-09T06:27:35;25.80;1.00
20463;DHT22;10390;53.566;9.980;2022-09-09T06:30:00;25.80;1.00
20463;DHT22;10390;53.566;9.980;2022-09-09T06:32:26;25.80;1.00
20463;DHT22;10390;53.566;9.980;2022-09-09T06:34:52;25.80;1.00
20463;DHT22;10390;53.566;9.980;2022-09-09T06:37:18;25.80;1.00
20463;DHT22;10390;53.566;9.980;2022-09-09T06:39:44;25.80;1.00
20463;DHT22;10390;53.566;9.980;2022-09-09T06:42:09;25.80;1.00
20463;DHT22;10390;53.566;9.980;2022-09-09T06:44:35;25.80;1.00
20463;DHT22;10390;53.566;9.980;2022-09-09T06:47:01;25.80;1.00
20463;DHT22;10390;53.566;9.980;2022-09-09T06:49:27;25.80;1.00
20463;DHT22;10390;53.566;9.980;2022-09-09T06:51:53;25.80;1.00
20463;DHT22;10390;53.566;9.980;2022-09-09T06:54:19;25.80;1.00
20463;DHT22;10390;53.566;9.980;2022-09-09T06:56:45;25.80;1.00
20463;DHT22;10390;53.566;9.980;2022-09-09T06:59:11;25.80;1.00
20463;DHT22;10390;53.566;9.980;2022-09-09T07:01:42;25.80;1.00
20463;DHT22;10390;53.566;9.980;2022-09-09T07:04:14;25.80;1.00
20463;DHT22;10390;53.566;9.980;2022-09-09T07:06:42;25.80;1.00
20463;DHT22;10390;53.566;9.980;2022-09-09T07:09:13;25.80;1.00
20463;DHT22;10390;53.566;9.980;2022-09-09T07:11:44;25.70;1.00
20463;DHT22;10390;53.566;9.980;2022-09-09T07:14:11;25.80;1.00
20463;DHT22;10390;53.566;9.980;2022-09-09T07:16:43;25.80;1.00
20463;DHT22;10390;53.566;9.980;2022-09-09T07:19:11;25.80;1.00
20463;DHT22;10390;53.566;9.980;2022-09-09T07:21:38;25.80;1.00
20463;DHT22;10390;53.566;9.980;2022-09-09T07:24:05;25.80;1.00
20463;DHT22;10390;53.566;9.980;2022-09-09T07:26:33;25.80;1.00
20463;DHT22;10390;53.566;9.980;2022-09-09T07:28:59;25.80;1.00
20463;DHT22;10390;53.566;9.980;2022-09-09T07:31:30;25.80;1.00
20463;DHT22;10390;53.566;9.980;2022-09-09T07:33:56;25.80;1.00
20463;DHT22;10390;53.566;9.980;2022-09-09T07:36:28;25.80;1.00
20463;DHT22;10390;53.566;9.980;2022-09-09T07:38:55;25.80;1.00
20463;DHT22;10390;53.566;9.980;2022-09-09T07:41:28;25.80;1.00
20463;DHT22;10390;53.566;9.980;2022-09-09T07:43:54;25.80;1.00
20463;DHT22;10390;53.566;9.980;2022-09-09T07:46:21;25.80;1.00
20463;DHT22;10390;53.566;9.980;2022-09-09T07:48:52;25.80;1.00
20463;DHT22;10390;53.566;9.980;2022-09-09T07:51:31;25.80;1.00
20463;DHT22;10390;53.566;9.980;2022-09-09T07:54:02;25.80;1.00
20463;DHT22;10390;53.566;9.980;2022-09-09T07:56:29;25.80;1.00
20463;DHT22;10390;53.566;9.980;2022-09-09T07:58:56;25.80;1.00
20463;DHT22;10390;53.566;9.980;2022-09-09T08:01:29;25.80;1.00
20463;DHT22;10390;53.566;9.980;2022-09-09T08:03:56;25.80;1.00
20463;DHT22;10390;53.566;9.980;2022-09-09T08:06:25;25.80;1.00
20463;DHT22;10390;53.566;9.980;2022-09-09T08:08:52;25.80;1.00
20463;DHT22;10390;53.566;9.980;2022-09-09T08:11:18;25.80;1.00
20463;DHT22;10390;53.566;9.980;2022-09-09T08:13:44;25.80;1.00
20463;DHT22;10390;53.566;9.980;2022-09-09T08:16:13;25.80;1.00
20463;DHT22;10390;53.566;9.980;2022-09-09T08:18:39;25.80;1.00
20463;DHT22;10390;53.566;9.980;2022-09-09T08:21:10;25.80;1.00
20463;DHT22;10390;53.566;9.980;2022-09-09T08:23:43;25.80;1.00
20463;DHT22;10390;53.566;9.980;2022-09-09T08:26:15;25.80;1.00
20463;DHT22;10390;53.566;9.980;2022-09-09T08:28:42;25.80;1.00
20463;DHT22;10390;53.566;9.980;2022-09-09T08:31:13;25.80;1.00
20463;DHT22;10390;53.566;9.980;2022-09-09T08:33:40;25.80;1.00
20463;DHT22;10390;53.566;9.980;2022-09-09T08:36:09;25.80;1.00
20463;DHT22;10390;53.566;9.980;2022-09-09T08:38:36;25.80;1.00
20463;DHT22;10390;53.566;9.980;2022-09-09T08:47:07;25.80;1.00
20463;DHT22;10390;53.566;9.980;2022-09-09T08:52:25;25.80;1.00
20463;DHT22;10390;53.566;9.980;2022-09-09T08:55:12;25.80;1.00
20463;DHT22;10390;53.566;9.980;2022-09-09T08:57:40;25.80;1.00
20463;DHT22;10390;53.566;9.980;2022-09-09T09:00:10;25.80;1.00
20463;DHT22;10390;53.566;9.980;2022-09-09T09:05:46;25.70;1.00
20463;DHT22;10390;53.566;9.980;2022-09-09T09:08:33;25.70;1.00
20463;DHT22;10390;53.566;9.980;2022-09-09T09:11:00;25.70;1.00
20463;DHT22;10390;53.566;9.980;2022-09-09T09:13:31;25.70;1.00
20463;DHT22;10390;53.566;9.980;2022-09-09T09:16:06;25.70;1.00
20463;DHT22;10390;53.566;9.980;2022-09-09T09:18:34;25.70;1.00
20463;DHT22;10390;53.566;9.980;2022-09-09T09:21:20;25.70;1.00
20463;DHT22;10390;53.566;9.980;2022-09-09T09:23:58;25.70;1.00
20463;DHT22;10390;53.566;9.980;2022-09-09T09:26:29;25.70;1.00
20463;DHT22;10390;53.566;9.980;2022-09-09T09:28:56;25.70;1.00
20463;DHT22;10390;53.566;9.980;2022-09-09T09:31:22;25.70;1.00
20463;DHT22;10390;53.566;9.980;2022-09-09T09:33:56;25.70;1.00
20463;DHT22;10390;53.566;9.980;2022-09-09T09:36:41;25.70;1.00
20463;DHT22;10390;53.566;9.980;2022-09-09T09:39:08;25.70;1.00
20463;DHT22;10390;53.566;9.980;2022-09-09T09:41:42;25.60;1.00
20463;DHT22;10390;53.566;9.980;2022-09-09T09:44:29;25.70;1.00
20463;DHT22;10390;53.566;9.980;2022-09-09T09:47:11;25.60;1.00
20463;DHT22;10390;53.566;9.980;2022-09-09T09:49:37;25.60;1.00
20463;DHT22;10390;53.566;9.980;2022-09-09T09:52:05;25.60;1.00
20463;DHT22;10390;53.566;9.980;2022-09-09T09:54:34;25.60;1.00
20463;DHT22;10390;53.566;9.980;2022-09-09T09:57:13;25.60;1.00
20463;DHT22;10390;53.566;9.980;2022-09-09T09:59:40;25.60;1.00
20463;DHT22;10390;53.566;9.980;2022-09-09T10:04:38;25.60;1.00
20463;DHT22;10390;53.566;9.980;2022-09-09T10:07:21;25.60;1.00
20463;DHT22;10390;53.566;9.980;2022-09-09T10:09:52;25.60;1.00
20463;DHT22;10390;53.566;9.980;2022-09-09T10:18:12;25.60;1.00
20463;DHT22;10390;53.566;9.980;2022-09-09T10:21:20;25.60;1.00
20463;DHT22;10390;53.566;9.980;2022-09-09T10:30:05;25.60;1.00
20463;DHT22;10390;53.566;9.980;2022-09-09T10:35:35;25.60;1.00
20463;DHT22;10390;53.566;9.980;2022-09-09T10:57:05;25.60;1.00
20463;DHT22;10390;53.566;9.980;2022-09-09T10:59:47;25.60;1.00
20463;DHT22;10390;53.566;9.980;2022-09-09T11:02:19;25.60;1.00
20463;DHT22;10390;53.566;9.980;2022-09-09T11:04:58;25.60;1.00
20463;DHT22;10390;53.566;9.980;2022-09-09T11:07:33;25.60;1.00
20463;DHT22;10390;53.566;9.980;2022-09-09T11:10:04;25.60;1.00
20463;DHT22;10390;53.566;9.980;2022-09-09T11:12:34;25.60;1.00
20463;DHT22;10390;53.566;9.980;2022-09-09T11:15:08;25.60;1.00
20463;DHT22;10390;53.566;9.980;2022-09-09T11:17:46;25.60;1.00
20463;DHT22;10390;53.566;9.980;2022-09-09T11:20:15;25.60;1.00
20463;DHT22;10390;53.566;9.980;2022-09-09T11:25:17;25.60;1.00
20463;DHT22;10390;53.566;9.980;2022-09-09T11:33:53;25.60;1.00
20463;DHT22;10390;53.566;9.980;2022-09-09T11:41:51;25.60;1.00
20463;DHT22;10390;53.566;9.980;2022-09-09T11:44:24;25.50;1.00
20463;DHT22;10390;53.566;9.980;2022-09-09T11:46:52;25.50;1.00
20463;DHT22;10390;53.566;9.980;2022-09-09T11:49:30;25.50;1.00
20463;DHT22;10390;53.566;9.980;2022-09-09T11:52:24;25.50;1.00
20463;DHT22;10390;53.566;9.980;2022-09-09T11:54:51;25.50;1.00
20463;DHT22;10390;53.566;9.980;2022-09-09T11:57:37;25.50;1.00
20463;DHT22;10390;53.566;9.980;2022-09-09T12:00:04;25.50;1.00
20463;DHT22;10390;53.566;9.980;2022-09-09T12:02:30;25.50;1.00
20463;DHT22;10390;53.566;9.980;2022-09-09T12:05:11;25.50;1.00
20463;DHT22;10390;53.566;9.980;2022-09-09T12:07:41;25.50;1.00
20463;DHT22;10390;53.566;9.980;2022-09-09T12:10:30;25.50;1.00
20463;DHT22;10390;53.566;9.980;2022-09-09T12:15:34;25.50;1.00
20463;DHT22;10390;53.566;9.980;2022-09-09T12:18:00;25.50;1.00
20463;DHT22;10390;53.566;9.980;2022-09-09T12:31:25;25.50;1.00
20463;DHT22;10390;53.566;9.980;2022-09-09T12:33:52;25.60;1.00
20463;DHT22;10390;53.566;9.980;2022-09-09T12:36:38;25.60;1.00
20463;DHT22;10390;53.566;9.980;2022-09-09T12:39:27;25.60;1.00
20463;DHT22;10390;53.566;9.980;2022-09-09T12:41:54;25.60;1.00
20463;DHT22;10390;53.566;9.980;2022-09-09T12:44:23;25.60;1.00
20463;DHT22;10390;53.566;9.980;2022-09-09T12:46:49;25.60;1.00
20463;DHT22;10390;53.566;9.980;2022-09-09T12:49:35;25.60;1.00
20463;DHT22;10390;53.566;9.980;2022-09-09T12:52:20;25.60;1.00
20463;DHT22;10390;53.566;9.980;2022-09-09T12:54:48;25.70;1.00
20463;DHT22;10390;53.566;9.980;2022-09-09T12:57:16;25.70;1.00
20463;DHT22;10390;53.566;9.980;2022-09-09T12:59:43;25.70;1.00
20463;DHT22;10390;53.566;9.980;2022-09-09T13:02:22;25.70;1.00
20463;DHT22;10390;53.566;9.980;2022-09-09T13:04:49;25.70;1.00
20463;DHT22;10390;53.566;9.980;2022-09-09T13:07:19;25.70;1.00
20463;DHT22;10390;53.566;9.980;2022-09-09T13:09:47;25.70;1.00
20463;DHT22;10390;53.566;9.980;2022-09-09T13:12:22;25.70;1.00
20463;DHT22;10390;53.566;9.980;2022-09-09T13:14:54;25.70;1.00
20463;DHT22;10390;53.566;9.980;2022-09-09T13:17:23;25.60;1.00
20463;DHT22;10390;53.566;9.980;2022-09-09T13:19:50;25.60;1.00
20463;DHT22;10390;53.566;9.980;2022-09-09T13:22:31;25.60;1.00
20463;DHT22;10390;53.566;9.980;2022-09-09T13:25:20;25.50;1.00
20463;DHT22;10390;53.566;9.980;2022-09-09T13:27:57;25.50;1.00
20463;DHT22;10390;53.566;9.980;2022-09-09T13:30:37;25.50;1.00
20463;DHT22;10390;53.566;9.980;2022-09-09T13:35:55;25.40;1.00
20463;DHT22;10390;53.566;9.980;2022-09-09T13:38:21;25.40;1.00
20463;DHT22;10390;53.566;9.980;2022-09-09T13:40:59;25.40;1.00
20463;DHT22;10390;53.566;9.980;2022-09-09T13:43:27;25.40;1.00
20463;DHT22;10390;53.566;9.980;2022-09-09T13:49:18;25.40;1.00
20463;DHT22;10390;53.566;9.980;2022-09-09T13:51:46;25.40;1.00
20463;DHT22;10390;53.566;9.980;2022-09-09T13:54:14;25.40;1.00
20463;DHT22;10390;53.566;9.980;2022-09-09T13:56:41;25.50;1.00
20463;DHT22;10390;53.566;9.980;2022-09-09T13:59:15;25.50;1.00
20463;DHT22;10390;53.566;9.980;2022-09-09T14:01:41;25.50;1.00
20463;DHT22;10390;53.566;9.980;2022-09-09T14:04:08;25.50;1.00
20463;DHT22;10390;53.566;9.980;2022-09-09T14:06:37;25.50;1.00
20463;DHT22;10390;53.566;9.980;2022-09-09T14:09:05;25.50;1.00
20463;DHT22;10390;53.566;9.980;2022-09-09T14:11:31;25.50;1.00
20463;DHT22;10390;53.566;9.980;2022-09-09T14:13:57;25.50;1.00
20463;DHT22;10390;53.566;9.980;2022-09-09T14:16:22;25.50;1.00
20463;DHT22;10390;53.566;9.980;2022-09-09T14:18:48;25.60;1.00
20463;DHT22;10390;53.566;9.980;2022-09-09T14:21:14;25.60;1.00
20463;DHT22;10390;53.566;9.980;2022-09-09T14:23:41;25.60;1.00
20463;DHT22;10390;53.566;9.980;2022-09-09T14:26:07;25.60;1.00
20463;DHT22;10390;53.566;9.980;2022-09-09T14:28:34;25.60;1.00
20463;DHT22;10390;53.566;9.980;2022-09-09T14:31:00;25.70;1.00
20463;DHT22;10390;53.566;9.980;2022-09-09T14:33:27;25.60;1.00
20463;DHT22;10390;53.566;9.980;2022-09-09T14:35:58;25.60;1.00
20463;DHT22;10390;53.566;9.980;2022-09-09T14:38:26;25.70;1.00
20463;DHT22;10390;53.566;9.980;2022-09-09T14:40:53;25.60;1.00
20463;DHT22;10390;53.566;9.980;2022-09-09T14:43:19;25.70;1.00
20463;DHT22;10390;53.566;9.980;2022-09-09T14:45:46;25.60;1.00
20463;DHT22;10390;53.566;9.980;2022-09-09T14:48:14;25.60;1.00
20463;DHT22;10390;53.566;9.980;2022-09-09T14:50:41;25.70;1.00
20463;DHT22;10390;53.566;9.980;2022-09-09T14:53:07;25.70;1.00
20463;DHT22;10390;53.566;9.980;2022-09-09T14:55:34;25.70;1.00
20463;DHT22;10390;53.566;9.980;2022-09-09T14:58:00;25.70;1.00
20463;DHT22;10390;53.566;9.980;2022-09-09T15:00:25;25.70;1.00
20463;DHT22;10390;53.566;9.980;2022-09-09T15:02:54;25.70;1.00
20463;DHT22;10390;53.566;9.980;2022-09-09T15:05:21;25.70;1.00
20463;DHT22;10390;53.566;9.980;2022-09-09T15:07:47;25.70;1.00
20463;DHT22;10390;53.566;9.980;2022-09-09T15:10:14;25.70;1.00
20463;DHT22;10390;53.566;9.980;2022-09-09T15:12:40;25.70;1.00
20463;DHT22;10390;53.566;9.980;2022-09-09T15:15:07;25.70;1.00
20463;DHT22;10390;53.566;9.980;2022-09-09T15:17:33;25.70;1.00
20463;DHT22;10390;53.566;9.980;2022-09-09T15:20:00;25.80;1.00
20463;DHT22;10390;53.566;9.980;2022-09-09T15:22:26;25.80;1.00
20463;DHT22;10390;53.566;9.980;2022-09-09T15:24:51;25.80;1.00
20463;DHT22;10390;53.566;9.980;2022-09-09T15:27:17;25.80;1.00
20463;DHT22;10390;53.566;9.980;2022-09-09T15:29:43;25.80;1.00
20463;DHT22;10390;53.566;9.980;2022-09-09T15:32:09;25.80;1.00
20463;DHT22;10390;53.566;9.980;2022-09-09T15:34:35;25.80;1.00
20463;DHT22;10390;53.566;9.980;2022-09-09T15:37:01;25.80;1.00
20463;DHT22;10390;53.566;9.980;2022-09-09T15:39:27;25.90;1.00
20463;DHT22;10390;53.566;9.980;2022-09-09T15:41:52;25.90;1.00
20463;DHT22;10390;53.566;9.980;2022-09-09T15:44:18;25.90;1.00
20463;DHT22;10390;53.566;9.980;2022-09-09T15:46:51;25.80;1.00
20463;DHT22;10390;53.566;9.980;2022-09-09T15:49:23;25.90;1.00
20463;DHT22;10390;53.566;9.980;2022-09-09T15:51:55;25.90;1.00
20463;DHT22;10390;53.566;9.980;2022-09-09T15:54:22;25.90;1.00
20463;DHT22;10390;53.566;9.980;2022-09-09T15:56:54;25.90;1.00
20463;DHT22;10390;53.566;9.980;2022-09-09T15:59:26;25.90;1.00
20463;DHT22;10390;53.566;9.980;2022-09-09T16:01:53;25.90;1.00
20463;DHT22;10390;53.566;9.980;2022-09-09T16:04:21;25.90;1.00
20463;DHT22;10390;53.566;9.980;2022-09-09T16:06:55;25.90;1.00
20463;DHT22;10390;53.566;9.980;2022-09-09T16:09:21;25.90;1.00
20463;DHT22;10390;53.566;9.980;2022-09-09T16:11:47;25.80;1.00
20463;DHT22;10390;53.566;9.980;2022-09-09T16:14:14;25.90;1.00
20463;DHT22;10390;53.566;9.980;2022-09-09T16:16:41;25.90;1.00
20463;DHT22;10390;53.566;9.980;2022-09-09T16:19:09;25.90;1.00
20463;DHT22;10390;53.566;9.980;2022-09-09T16:21:44;25.90;1.00
20463;DHT22;10390;53.566;9.980;2022-09-09T16:24:12;25.90;1.00
20463;DHT22;10390;53.566;9.980;2022-09-09T16:26:43;25.90;1.00
20463;DHT22;10390;53.566;9.980;2022-09-09T16:29:11;25.90;1.00
20463;DHT22;10390;53.566;9.980;2022-09-09T16:31:37;25.90;1.00
20463;DHT22;10390;53.566;9.980;2022-09-09T16:34:03;25.90;1.00
20463;DHT22;10390;53.566;9.980;2022-09-09T16:36:30;25.90;1.00
20463;DHT22;10390;53.566;9.980;2022-09-09T16:39:01;25.90;1.00
20463;DHT22;10390;53.566;9.980;2022-09-09T16:41:28;25.90;1.00
20463;DHT22;10390;53.566;9.980;2022-09-09T16:43:59;25.90;1.00
20463;DHT22;10390;53.566;9.980;2022-09-09T16:46:27;26.00;1.00
20463;DHT22;10390;53.566;9.980;2022-09-09T16:48:55;25.90;1.00
20463;DHT22;10390;53.566;9.980;2022-09-09T16:51:25;26.00;1.00
20463;DHT22;10390;53.566;9.980;2022-09-09T16:53:52;25.90;1.00
20463;DHT22;10390;53.566;9.980;2022-09-09T16:56:20;26.00;1.00
20463;DHT22;10390;53.566;9.980;2022-09-09T16:58:57;26.00;1.00
20463;DHT22;10390;53.566;9.980;2022-09-09T17:01:24;26.00;1.00
20463;DHT22;10390;53.566;9.980;2022-09-09T17:03:59;26.00;1.00
20463;DHT22;10390;53.566;9.980;2022-09-09T17:06:29;26.00;1.00
20463;DHT22;10390;53.566;9.980;2022-09-09T17:08:56;26.00;1.00
20463;DHT22;10390;53.566;9.980;2022-09-09T17:11:25;26.00;1.00
20463;DHT22;10390;53.566;9.980;2022-09-09T17:13:52;26.00;1.00
20463;DHT22;10390;53.566;9.980;2022-09-09T17:16:19;26.00;1.00
20463;DHT22;10390;53.566;9.980;2022-09-09T17:18:47;26.00;1.00
20463;DHT22;10390;53.566;9.980;2022-09-09T17:21:15;26.10;1.00
20463;DHT22;10390;53.566;9.980;2022-09-09T17:23:41;26.10;1.00
20463;DHT22;10390;53.566;9.980;2022-09-09T17:26:10;26.10;1.00
20463;DHT22;10390;53.566;9.980;2022-09-09T17:28:40;26.10;1.00
20463;DHT22;10390;53.566;9.980;2022-09-09T17:31:07;26.00;1.00
20463;DHT22;10390;53.566;9.980;2022-09-09T17:33:35;26.10;1.00
20463;DHT22;10390;53.566;9.980;2022-09-09T17:36:07;26.10;1.00
20463;DHT22;10390;53.566;9.980;2022-09-09T17:38:33;26.10;1.00
20463;DHT22;10390;53.566;9.980;2022-09-09T17:41:08;26.10;1.00
20463;DHT22;10390;53.566;9.980;2022-09-09T17:43:34;26.10;1.00
20463;DHT22;10390;53.566;9.980;2022-09-09T17:48:36;26.10;1.00
20463;DHT22;10390;53.566;9.980;2022-09-09T17:51:04;26.10;1.00
20463;DHT22;10390;53.566;9.980;2022-09-09T17:53:30;26.10;1.00
20463;DHT22;10390;53.566;9.980;2022-09-09T17:56:02;26.10;1.00
20463;DHT22;10390;53.566;9.980;2022-09-09T17:58:28;26.10;1.00
20463;DHT22;10390;53.566;9.980;2022-09-09T18:00:54;26.10;1.00
20463;DHT22;10390;53.566;9.980;2022-09-09T18:03:26;26.10;1.00
20463;DHT22;10390;53.566;9.980;2022-09-09T18:05:52;26.10;1.00